Airfield :
LOGIN :

Register | Disclaimer

   EN    FR    IT 

 










Legend :    VFR   Marginal VFR   IFR   Intensive IFR   Very Intensive IFR
Visi :
Ceiling :
>= 8 km
>= 3000ft
5 to 8 km
1000 to 3000 ft
1500m to 5 km
500 to 1000 ft
800 to 1500m
200 to 500 ft
< 800m
< 200 ft
Symbols :   Thunderstorms  Fog  Heavy snow  Heavy precipitations  Wind > 20 kt
SIGMETs :     Misc.  Thunderstorms  Icing  Turbulence  Mountain Waves  Volcanic Ashes






- Airport Elevation : 200 ft


EBBL - Klein Brogel AB

CURRENT METAR :
  • 271525Z 26006KT 8000 -SHRA SCT035 OVC055 14/12 Q1017 BLU BLU TEMPO WHT

EXPIRED METARs :
  • 271455Z 25008KT 9999 -SHRA SCT035 OVC065 15/11 Q1016 BLU BLU TEMPO WHT
  • 271425Z 25004KT 9999 -SHRA FEW035 BKN065 17/10 Q1016 BLU BLU TEMPO WHT
  • 271408Z 28005KT 9999 FEW030 BKN070 17/11 Q1016 BLU BLU TEMPO WHT
  • 271355Z 28005KT 9999 FEW030 BKN070 17/10 Q1016 BLU BLU
  • 271325Z 27005KT 9999 FEW030 SCT070 BKN190 18/10 Q1016 BLU BLU
  • 271255Z 27005KT 9999 FEW035 SCT090 BKN200 19/12 Q1016 BLU BLU
  • 271225Z 26007KT 9999 FEW035 BKN065 17/11 Q1016 BLU BLU
  • 271155Z 24008KT 9999 FEW035 BKN065 17/11 Q1017 BLU BLU
  • 271125Z 22006KT 9999 FEW035 BKN070 17/10 Q1017 BLU BLU
  • 271055Z 23007KT 9999 SCT035 BKN095 18/10 Q1017 BLU BLU

TAF TAF EBBL
Valid from the 27 at 13:00 until the 27 at 22:00 UTC


271141Z 2713/2722 24005KT 9999 SCT035 BKN060
TEMPO 2713/2722 6000 -SHRA SCT030TCU
TEMPO 2713/2722 26005G15KT 4000 SHRA BKN028TCU
PROB30
TEMPO 2716/2722 27008G18KT 2000 TSRA BKN025CB



MET'MAP, your aeronautical weather chart ! - Copyright ORBIFLY December 2007 - Disclaimer

ORBIFLY MET'MAP TEAM :

Programming & Development : Alexandra Zaïnal
Original concept : Baudouin d'Aumeries
Technical & hardware support : Manuel Goepfert
Assistance : Marc-Olivier Méhu




SOURCES & CREDITS :

   NOAA